Список аэропортов
Фактическая погода:

21 апреля, 19:30
Температура: +13°C (+12.7*)
Ветер: южный 2 м/с
Давление: *770 мм
Без существ. явл.
Время (МСК)Темп. СВетерВлажностьДавлениеОблачностьОсадки
15:00+13Ю, 2 м/с36%1028 гПаясно
16:00+13Ю, 2 м/с36%1027 гПаясно
17:00+13Ю, 1 м/с36%1027 гПаясно
18:00+13Ю, 1 м/с37%1027 гПаясно
19:00+12Ю, 1 м/с42%1027 гПаясно
20:00+9Ю, 1 м/с57%1027 гПаясно
21:00+6ЮЗ, 1 м/с70%1028 гПаясно
22:00+4З, 1 м/с79%1028 гПаясно
23:00+2ЮЗ, 1 м/с84%1028 гПаясно
22 апреля
00:00+2Ю, 2 м/с84%1028 гПаясно
01:00+1Ю, 2 м/с92%1028 гПаясно
02:00-0Ю, 2 м/с94%1028 гПаясно
03:00-0Ю, 2 м/с94%1028 гПамалооблачно
04:00-0Ю, 2 м/с92%1028 гПас прояснениями
05:00+1Ю, 2 м/с92%1028 гПамалооблачно
06:00+1Ю, 2 м/с92%1028 гПаоблачно
07:00+3Ю, 3 м/с87%1028 гПас прояснениями
08:00+6Ю, 3 м/с70%1028 гПамалооблачно
09:00+10Ю, 3 м/с56%1028 гПамалооблачно
10:00+12Ю, 4 м/с47%1028 гПаясно
11:00+14ЮЗ, 4 м/с40%1028 гПамалооблачно
12:00+15ЮЗ, 4 м/с38%1028 гПамалооблачно
13:00+16ЮЗ, 5 м/с36%1028 гПас прояснениями
14:00+16ЮЗ, 5 м/с35%1028 гПаоблачно
15:00+16ЮЗ, 5 м/с36%1027 гПаоблачно
16:00+16З, 4 м/с38%1027 гПаоблачно
17:00+15З, 4 м/с40%1027 гПаоблачно
18:00+14ЮЗ, 3 м/с47%1027 гПаоблачно
19:00+14З, 2 м/с53%1026 гПаоблачно
20:00+12ЮЗ, 2 м/с61%1026 гПаоблачно
21:00+11ЮЗ, 2 м/с67%1026 гПаоблачно
22:00+10ЮЗ, 2 м/с70%1026 гПаоблачно
23:00+10ЮЗ, 3 м/с66%1026 гПаоблачно
23 апреля
00:00+10ЮЗ, 3 м/с60%1026 гПаоблачно
01:00+10ЮЗ, 3 м/с58%1026 гПаоблачно
02:00+9ЮЗ, 3 м/с63%1026 гПаоблачносл. дождь
03:00+10ЮЗ, 3 м/с64%1026 гПаоблачно
04:00+10ЮЗ, 3 м/с58%1026 гПаоблачно
05:00+11ЮЗ, 4 м/с51%1026 гПаоблачно
06:00+10ЮЗ, 4 м/с52%1026 гПаоблачно
07:00+10ЮЗ, 4 м/с56%1026 гПаоблачно
08:00+12ЮЗ, 4 м/с55%1026 гПаоблачно
09:00+13З, 6 м/с51%1026 гПаоблачно
10:00+14З, 6 м/с48%1026 гПаоблачно
11:00+15З, 6 м/с48%1026 гПаоблачно
12:00+16З, 6 м/с45%1026 гПаоблачно
13:00+16З, 6 м/с42%1026 гПаоблачно
14:00+16З, 6 м/с41%1027 гПаоблачно
15:00+17З, 6 м/с39%1026 гПаоблачно